Aviation Digital Data Service (ADDS)

Output produced by METARs form (1358 UTC 08 May 2021)
found at http://aviationweather.gov/metar/data/
 
KMCB 081353Z AUTO 15007KT 10SM CLR 20/13 A3012 RMK AO2 SLP196 T02000133
KMCB 081120Z 0812/0912 VRB03KT P6SM FEW250 
     FM081700 18009KT P6SM FEW250 
     FM091000 18006KT P6SM FEW025